sensor_id;sensor_type;location;lat;lon;timestamp;temperature;humidity
38020;DHT22;23829;51.350;17.286;2022-12-07T00:03:40;19.50;37.50
38020;DHT22;23829;51.350;17.286;2022-12-07T00:06:09;19.70;37.30
38020;DHT22;23829;51.350;17.286;2022-12-07T00:08:36;19.50;37.30
38020;DHT22;23829;51.350;17.286;2022-12-07T00:11:13;19.70;37.20
38020;DHT22;23829;51.350;17.286;2022-12-07T00:13:40;19.70;37.20
38020;DHT22;23829;51.350;17.286;2022-12-07T00:16:12;19.60;37.20
38020;DHT22;23829;51.350;17.286;2022-12-07T00:18:39;19.80;37.20
38020;DHT22;23829;51.350;17.286;2022-12-07T00:21:10;19.50;37.50
38020;DHT22;23829;51.350;17.286;2022-12-07T00:23:37;19.30;37.80
38020;DHT22;23829;51.350;17.286;2022-12-07T00:26:09;19.50;37.60
38020;DHT22;23829;51.350;17.286;2022-12-07T00:28:35;19.50;37.60
38020;DHT22;23829;51.350;17.286;2022-12-07T00:31:10;19.50;37.50
38020;DHT22;23829;51.350;17.286;2022-12-07T00:33:38;19.70;37.30
38020;DHT22;23829;51.350;17.286;2022-12-07T00:36:09;19.70;37.20
38020;DHT22;23829;51.350;17.286;2022-12-07T00:38:36;19.40;37.50
38020;DHT22;23829;51.350;17.286;2022-12-07T00:41:30;19.30;37.60
38020;DHT22;23829;51.350;17.286;2022-12-07T00:43:57;19.20;38.00
38020;DHT22;23829;51.350;17.286;2022-12-07T00:46:24;18.90;38.30
38020;DHT22;23829;51.350;17.286;2022-12-07T00:48:51;19.00;38.30
38020;DHT22;23829;51.350;17.286;2022-12-07T00:51:21;19.30;38.30
38020;DHT22;23829;51.350;17.286;2022-12-07T00:53:47;19.40;37.80
38020;DHT22;23829;51.350;17.286;2022-12-07T00:56:22;19.40;37.70
38020;DHT22;23829;51.350;17.286;2022-12-07T00:58:54;19.40;37.70
38020;DHT22;23829;51.350;17.286;2022-12-07T01:01:22;19.60;37.60
38020;DHT22;23829;51.350;17.286;2022-12-07T01:03:49;19.60;37.50
38020;DHT22;23829;51.350;17.286;2022-12-07T01:06:20;19.70;37.50
38020;DHT22;23829;51.350;17.286;2022-12-07T01:08:47;19.50;37.50
38020;DHT22;23829;51.350;17.286;2022-12-07T01:11:17;19.30;38.00
38020;DHT22;23829;51.350;17.286;2022-12-07T01:13:44;19.40;37.80
38020;DHT22;23829;51.350;17.286;2022-12-07T01:16:13;19.30;37.80
38020;DHT22;23829;51.350;17.286;2022-12-07T01:18:40;19.40;38.00
38020;DHT22;23829;51.350;17.286;2022-12-07T01:21:11;19.40;37.70
38020;DHT22;23829;51.350;17.286;2022-12-07T01:23:38;19.50;37.90
38020;DHT22;23829;51.350;17.286;2022-12-07T01:26:07;19.50;37.60
38020;DHT22;23829;51.350;17.286;2022-12-07T01:28:35;19.10;38.20
38020;DHT22;23829;51.350;17.286;2022-12-07T01:31:12;19.20;38.30
38020;DHT22;23829;51.350;17.286;2022-12-07T01:33:42;19.10;38.20
38020;DHT22;23829;51.350;17.286;2022-12-07T01:36:19;19.20;38.30
38020;DHT22;23829;51.350;17.286;2022-12-07T01:38:47;19.20;38.20
38020;DHT22;23829;51.350;17.286;2022-12-07T01:41:15;19.20;38.30
38020;DHT22;23829;51.350;17.286;2022-12-07T01:44:14;19.00;38.70
38020;DHT22;23829;51.350;17.286;2022-12-07T01:46:46;19.10;38.30
38020;DHT22;23829;51.350;17.286;2022-12-07T01:49:17;19.20;38.30
38020;DHT22;23829;51.350;17.286;2022-12-07T01:51:49;19.00;38.60
38020;DHT22;23829;51.350;17.286;2022-12-07T01:54:17;18.90;38.90
38020;DHT22;23829;51.350;17.286;2022-12-07T01:56:49;19.00;38.90
38020;DHT22;23829;51.350;17.286;2022-12-07T01:59:18;18.90;39.40
38020;DHT22;23829;51.350;17.286;2022-12-07T02:01:45;19.20;38.60
38020;DHT22;23829;51.350;17.286;2022-12-07T02:04:12;19.20;38.40
38020;DHT22;23829;51.350;17.286;2022-12-07T02:06:39;19.50;38.10
38020;DHT22;23829;51.350;17.286;2022-12-07T02:09:06;19.40;37.90
38020;DHT22;23829;51.350;17.286;2022-12-07T02:11:32;19.50;37.80
38020;DHT22;23829;51.350;17.286;2022-12-07T02:13:59;19.50;37.80
38020;DHT22;23829;51.350;17.286;2022-12-07T02:16:38;19.50;37.80
38020;DHT22;23829;51.350;17.286;2022-12-07T02:19:39;19.30;38.00
38020;DHT22;23829;51.350;17.286;2022-12-07T02:24:57;19.00;38.60
38020;DHT22;23829;51.350;17.286;2022-12-07T02:30:45;19.30;38.30
38020;DHT22;23829;51.350;17.286;2022-12-07T02:33:26;19.30;38.20
38020;DHT22;23829;51.350;17.286;2022-12-07T02:36:07;19.30;38.10
38020;DHT22;23829;51.350;17.286;2022-12-07T02:38:43;19.30;38.20
38020;DHT22;23829;51.350;17.286;2022-12-07T02:43:52;19.50;37.70
38020;DHT22;23829;51.350;17.286;2022-12-07T02:46:35;19.50;37.90
38020;DHT22;23829;51.350;17.286;2022-12-07T02:49:03;19.30;37.80
38020;DHT22;23829;51.350;17.286;2022-12-07T02:51:32;19.20;38.20
38020;DHT22;23829;51.350;17.286;2022-12-07T02:54:00;19.10;38.30
38020;DHT22;23829;51.350;17.286;2022-12-07T03:13:39;19.00;38.20
38020;DHT22;23829;51.350;17.286;2022-12-07T03:18:05;19.10;38.30
38020;DHT22;23829;51.350;17.286;2022-12-07T03:20:35;19.30;38.00
38020;DHT22;23829;51.350;17.286;2022-12-07T03:23:06;19.40;37.80
38020;DHT22;23829;51.350;17.286;2022-12-07T03:25:35;19.40;37.70
38020;DHT22;23829;51.350;17.286;2022-12-07T03:28:05;19.40;37.70
38020;DHT22;23829;51.350;17.286;2022-12-07T03:30:43;19.20;37.90
38020;DHT22;23829;51.350;17.286;2022-12-07T03:33:18;19.40;37.80
38020;DHT22;23829;51.350;17.286;2022-12-07T03:36:00;19.30;37.90
38020;DHT22;23829;51.350;17.286;2022-12-07T03:38:40;19.40;37.90
38020;DHT22;23829;51.350;17.286;2022-12-07T03:41:14;19.60;37.50
38020;DHT22;23829;51.350;17.286;2022-12-07T03:43:42;19.50;37.30
38020;DHT22;23829;51.350;17.286;2022-12-07T03:49:25;19.80;36.80
38020;DHT22;23829;51.350;17.286;2022-12-07T03:57:16;19.60;37.20
38020;DHT22;23829;51.350;17.286;2022-12-07T03:59:43;19.60;37.20
38020;DHT22;23829;51.350;17.286;2022-12-07T04:02:12;19.70;37.00
38020;DHT22;23829;51.350;17.286;2022-12-07T04:04:39;19.70;36.80
38020;DHT22;23829;51.350;17.286;2022-12-07T04:07:05;19.70;36.90
38020;DHT22;23829;51.350;17.286;2022-12-07T04:09:32;19.60;37.00
38020;DHT22;23829;51.350;17.286;2022-12-07T04:11:58;19.60;37.00
38020;DHT22;23829;51.350;17.286;2022-12-07T04:14:24;19.60;37.10
38020;DHT22;23829;51.350;17.286;2022-12-07T04:16:53;19.60;37.00
38020;DHT22;23829;51.350;17.286;2022-12-07T04:19:24;19.50;37.10
38020;DHT22;23829;51.350;17.286;2022-12-07T04:21:51;19.40;37.20
38020;DHT22;23829;51.350;17.286;2022-12-07T04:24:18;19.20;37.20
38020;DHT22;23829;51.350;17.286;2022-12-07T04:26:45;19.20;37.50
38020;DHT22;23829;51.350;17.286;2022-12-07T04:29:12;19.50;37.20
38020;DHT22;23829;51.350;17.286;2022-12-07T04:31:39;19.30;37.40
38020;DHT22;23829;51.350;17.286;2022-12-07T04:34:06;19.20;37.90
38020;DHT22;23829;51.350;17.286;2022-12-07T04:36:33;19.20;37.20
38020;DHT22;23829;51.350;17.286;2022-12-07T04:39:00;19.30;37.20
38020;DHT22;23829;51.350;17.286;2022-12-07T04:41:27;19.30;37.00
38020;DHT22;23829;51.350;17.286;2022-12-07T04:43:58;19.30;36.90
38020;DHT22;23829;51.350;17.286;2022-12-07T04:46:26;19.40;36.70
38020;DHT22;23829;51.350;17.286;2022-12-07T04:48:53;19.20;36.80
38020;DHT22;23829;51.350;17.286;2022-12-07T04:51:23;19.30;36.90
38020;DHT22;23829;51.350;17.286;2022-12-07T04:53:49;19.20;36.90
38020;DHT22;23829;51.350;17.286;2022-12-07T04:56:17;19.40;36.70
38020;DHT22;23829;51.350;17.286;2022-12-07T04:58:45;19.50;36.50
38020;DHT22;23829;51.350;17.286;2022-12-07T05:01:12;19.30;36.60
38020;DHT22;23829;51.350;17.286;2022-12-07T05:03:38;19.30;36.60
38020;DHT22;23829;51.350;17.286;2022-12-07T05:06:05;19.30;36.60
38020;DHT22;23829;51.350;17.286;2022-12-07T05:08:33;19.40;36.70
38020;DHT22;23829;51.350;17.286;2022-12-07T05:11:01;19.10;37.20
38020;DHT22;23829;51.350;17.286;2022-12-07T05:13:27;19.00;37.80
38020;DHT22;23829;51.350;17.286;2022-12-07T05:15:55;18.90;37.50
38020;DHT22;23829;51.350;17.286;2022-12-07T05:18:22;19.00;37.50
38020;DHT22;23829;51.350;17.286;2022-12-07T05:20:48;19.10;37.20
38020;DHT22;23829;51.350;17.286;2022-12-07T05:23:15;19.30;37.20
38020;DHT22;23829;51.350;17.286;2022-12-07T05:25:42;19.40;37.60
38020;DHT22;23829;51.350;17.286;2022-12-07T05:28:08;19.40;36.80
38020;DHT22;23829;51.350;17.286;2022-12-07T05:30:35;19.60;36.60
38020;DHT22;23829;51.350;17.286;2022-12-07T05:33:01;19.60;36.40
38020;DHT22;23829;51.350;17.286;2022-12-07T05:35:29;19.50;36.40
38020;DHT22;23829;51.350;17.286;2022-12-07T05:37:55;19.50;36.50
38020;DHT22;23829;51.350;17.286;2022-12-07T05:40:23;19.50;36.40
38020;DHT22;23829;51.350;17.286;2022-12-07T05:42:49;19.70;36.00
38020;DHT22;23829;51.350;17.286;2022-12-07T05:45:16;19.70;36.00
38020;DHT22;23829;51.350;17.286;2022-12-07T05:47:42;19.80;35.70
38020;DHT22;23829;51.350;17.286;2022-12-07T05:50:09;19.80;35.70
38020;DHT22;23829;51.350;17.286;2022-12-07T05:52:35;19.90;35.40
38020;DHT22;23829;51.350;17.286;2022-12-07T05:55:02;19.90;35.50
38020;DHT22;23829;51.350;17.286;2022-12-07T05:57:28;19.80;35.70
38020;DHT22;23829;51.350;17.286;2022-12-07T05:59:54;19.90;35.70
38020;DHT22;23829;51.350;17.286;2022-12-07T06:02:21;19.90;35.60
38020;DHT22;23829;51.350;17.286;2022-12-07T06:04:47;19.70;35.80
38020;DHT22;23829;51.350;17.286;2022-12-07T06:07:15;19.80;35.90
38020;DHT22;23829;51.350;17.286;2022-12-07T06:09:42;19.80;35.80
38020;DHT22;23829;51.350;17.286;2022-12-07T06:12:11;19.80;35.90
38020;DHT22;23829;51.350;17.286;2022-12-07T06:14:56;19.70;36.20
38020;DHT22;23829;51.350;17.286;2022-12-07T06:17:23;19.60;36.40
38020;DHT22;23829;51.350;17.286;2022-12-07T06:19:50;19.60;36.30
38020;DHT22;23829;51.350;17.286;2022-12-07T06:22:16;19.60;36.50
38020;DHT22;23829;51.350;17.286;2022-12-07T06:24:44;19.50;36.60
38020;DHT22;23829;51.350;17.286;2022-12-07T06:27:10;19.50;36.80
38020;DHT22;23829;51.350;17.286;2022-12-07T06:29:37;19.50;36.90
38020;DHT22;23829;51.350;17.286;2022-12-07T06:32:04;19.30;37.10
38020;DHT22;23829;51.350;17.286;2022-12-07T06:34:31;19.30;37.20
38020;DHT22;23829;51.350;17.286;2022-12-07T06:36:57;19.20;37.10
38020;DHT22;23829;51.350;17.286;2022-12-07T06:39:26;19.20;37.30
38020;DHT22;23829;51.350;17.286;2022-12-07T06:41:52;19.30;37.20
38020;DHT22;23829;51.350;17.286;2022-12-07T06:44:20;19.40;37.30
38020;DHT22;23829;51.350;17.286;2022-12-07T06:46:48;19.50;37.10
38020;DHT22;23829;51.350;17.286;2022-12-07T06:49:15;19.50;37.10
38020;DHT22;23829;51.350;17.286;2022-12-07T06:51:42;19.50;37.00
38020;DHT22;23829;51.350;17.286;2022-12-07T06:54:10;19.50;36.90
38020;DHT22;23829;51.350;17.286;2022-12-07T06:56:37;19.50;37.00
38020;DHT22;23829;51.350;17.286;2022-12-07T06:59:04;19.30;37.30
38020;DHT22;23829;51.350;17.286;2022-12-07T07:01:33;19.20;37.20
38020;DHT22;23829;51.350;17.286;2022-12-07T07:04:00;19.20;37.30
38020;DHT22;23829;51.350;17.286;2022-12-07T07:06:27;19.10;37.40
38020;DHT22;23829;51.350;17.286;2022-12-07T07:08:54;19.30;37.20
38020;DHT22;23829;51.350;17.286;2022-12-07T07:11:20;19.20;37.30
38020;DHT22;23829;51.350;17.286;2022-12-07T07:13:46;19.20;37.50
38020;DHT22;23829;51.350;17.286;2022-12-07T07:16:13;19.20;37.20
38020;DHT22;23829;51.350;17.286;2022-12-07T07:18:39;19.30;37.20
38020;DHT22;23829;51.350;17.286;2022-12-07T07:21:06;19.20;37.20
38020;DHT22;23829;51.350;17.286;2022-12-07T07:23:32;19.40;37.10
38020;DHT22;23829;51.350;17.286;2022-12-07T07:25:58;19.40;37.00
38020;DHT22;23829;51.350;17.286;2022-12-07T07:28:25;19.30;37.00
38020;DHT22;23829;51.350;17.286;2022-12-07T07:30:52;19.30;37.00
38020;DHT22;23829;51.350;17.286;2022-12-07T07:33:18;19.40;37.20
38020;DHT22;23829;51.350;17.286;2022-12-07T07:35:45;19.50;37.00
38020;DHT22;23829;51.350;17.286;2022-12-07T07:38:11;19.20;37.10
38020;DHT22;23829;51.350;17.286;2022-12-07T07:40:38;19.00;37.40
38020;DHT22;23829;51.350;17.286;2022-12-07T07:43:04;19.20;37.40
38020;DHT22;23829;51.350;17.286;2022-12-07T07:45:30;19.10;37.20
38020;DHT22;23829;51.350;17.286;2022-12-07T07:47:57;19.20;37.30
38020;DHT22;23829;51.350;17.286;2022-12-07T07:50:23;19.00;37.10
38020;DHT22;23829;51.350;17.286;2022-12-07T07:52:51;18.80;37.50
38020;DHT22;23829;51.350;17.286;2022-12-07T07:55:18;18.80;37.80
38020;DHT22;23829;51.350;17.286;2022-12-07T07:57:44;18.80;37.70
38020;DHT22;23829;51.350;17.286;2022-12-07T08:00:13;18.80;37.80
38020;DHT22;23829;51.350;17.286;2022-12-07T08:02:40;19.00;37.80
38020;DHT22;23829;51.350;17.286;2022-12-07T08:05:12;19.20;37.30
38020;DHT22;23829;51.350;17.286;2022-12-07T08:07:38;19.20;37.10
38020;DHT22;23829;51.350;17.286;2022-12-07T08:10:06;19.40;36.90
38020;DHT22;23829;51.350;17.286;2022-12-07T08:12:36;19.50;36.50
38020;DHT22;23829;51.350;17.286;2022-12-07T08:15:03;19.70;35.90
38020;DHT22;23829;51.350;17.286;2022-12-07T08:17:30;19.70;35.90
38020;DHT22;23829;51.350;17.286;2022-12-07T08:19:56;19.90;36.00
38020;DHT22;23829;51.350;17.286;2022-12-07T08:22:23;20.10;35.40
38020;DHT22;23829;51.350;17.286;2022-12-07T08:24:49;19.60;35.90
38020;DHT22;23829;51.350;17.286;2022-12-07T08:27:16;19.40;36.00
38020;DHT22;23829;51.350;17.286;2022-12-07T08:29:42;19.50;36.10
38020;DHT22;23829;51.350;17.286;2022-12-07T08:32:08;19.30;36.40
38020;DHT22;23829;51.350;17.286;2022-12-07T08:34:35;19.40;36.20
38020;DHT22;23829;51.350;17.286;2022-12-07T08:37:02;19.40;36.20
38020;DHT22;23829;51.350;17.286;2022-12-07T08:39:28;19.50;36.10
38020;DHT22;23829;51.350;17.286;2022-12-07T08:41:54;19.50;36.00
38020;DHT22;23829;51.350;17.286;2022-12-07T08:44:21;19.40;36.10
38020;DHT22;23829;51.350;17.286;2022-12-07T08:46:53;19.40;36.00
38020;DHT22;23829;51.350;17.286;2022-12-07T08:49:24;19.50;36.20
38020;DHT22;23829;51.350;17.286;2022-12-07T08:51:53;19.70;36.40
38020;DHT22;23829;51.350;17.286;2022-12-07T08:54:20;19.90;36.40
38020;DHT22;23829;51.350;17.286;2022-12-07T08:56:47;20.00;36.10
38020;DHT22;23829;51.350;17.286;2022-12-07T08:59:17;20.10;35.70
38020;DHT22;23829;51.350;17.286;2022-12-07T09:01:45;20.00;35.80
38020;DHT22;23829;51.350;17.286;2022-12-07T09:04:11;20.10;36.00
38020;DHT22;23829;51.350;17.286;2022-12-07T09:06:38;20.20;35.90
38020;DHT22;23829;51.350;17.286;2022-12-07T09:09:04;20.20;35.70
38020;DHT22;23829;51.350;17.286;2022-12-07T09:11:31;20.30;36.10
38020;DHT22;23829;51.350;17.286;2022-12-07T09:13:57;20.30;35.80
38020;DHT22;23829;51.350;17.286;2022-12-07T09:16:23;20.40;35.80
38020;DHT22;23829;51.350;17.286;2022-12-07T09:18:50;20.40;35.70
38020;DHT22;23829;51.350;17.286;2022-12-07T09:21:16;20.30;35.50
38020;DHT22;23829;51.350;17.286;2022-12-07T09:23:43;20.40;35.90
38020;DHT22;23829;51.350;17.286;2022-12-07T09:26:10;20.30;36.00
38020;DHT22;23829;51.350;17.286;2022-12-07T09:28:36;20.30;35.70
38020;DHT22;23829;51.350;17.286;2022-12-07T09:31:04;20.40;35.50
38020;DHT22;23829;51.350;17.286;2022-12-07T09:33:30;20.50;35.50
38020;DHT22;23829;51.350;17.286;2022-12-07T09:35:57;20.50;35.70
38020;DHT22;23829;51.350;17.286;2022-12-07T09:38:23;20.40;35.70
38020;DHT22;23829;51.350;17.286;2022-12-07T09:40:54;20.50;35.50
38020;DHT22;23829;51.350;17.286;2022-12-07T09:43:23;20.40;35.70
38020;DHT22;23829;51.350;17.286;2022-12-07T09:45:52;20.60;35.50
38020;DHT22;23829;51.350;17.286;2022-12-07T09:48:36;20.40;35.40
38020;DHT22;23829;51.350;17.286;2022-12-07T09:51:20;20.30;36.00
38020;DHT22;23829;51.350;17.286;2022-12-07T09:53:47;20.40;35.70
38020;DHT22;23829;51.350;17.286;2022-12-07T09:56:16;20.40;36.70
38020;DHT22;23829;51.350;17.286;2022-12-07T09:58:43;20.30;35.90
38020;DHT22;23829;51.350;17.286;2022-12-07T10:01:14;20.30;35.80
38020;DHT22;23829;51.350;17.286;2022-12-07T10:03:50;20.40;36.00
38020;DHT22;23829;51.350;17.286;2022-12-07T10:06:17;20.20;35.50
38020;DHT22;23829;51.350;17.286;2022-12-07T10:08:43;20.30;35.80
38020;DHT22;23829;51.350;17.286;2022-12-07T10:11:11;20.30;36.00
38020;DHT22;23829;51.350;17.286;2022-12-07T10:13:46;20.50;35.50
38020;DHT22;23829;51.350;17.286;2022-12-07T10:18:50;20.60;35.70
38020;DHT22;23829;51.350;17.286;2022-12-07T10:21:20;20.60;35.10
38020;DHT22;23829;51.350;17.286;2022-12-07T10:29:32;20.70;34.80
38020;DHT22;23829;51.350;17.286;2022-12-07T10:34:46;20.70;34.70
38020;DHT22;23829;51.350;17.286;2022-12-07T10:39:51;20.70;35.00
38020;DHT22;23829;51.350;17.286;2022-12-07T10:42:31;20.70;35.20
38020;DHT22;23829;51.350;17.286;2022-12-07T10:45:15;20.70;35.10
38020;DHT22;23829;51.350;17.286;2022-12-07T11:01:41;20.30;35.70
38020;DHT22;23829;51.350;17.286;2022-12-07T11:10:26;20.10;36.40
38020;DHT22;23829;51.350;17.286;2022-12-07T11:18:18;20.40;36.10
38020;DHT22;23829;51.350;17.286;2022-12-07T11:21:07;20.40;35.90
38020;DHT22;23829;51.350;17.286;2022-12-07T11:23:49;20.20;36.30
38020;DHT22;23829;51.350;17.286;2022-12-07T11:37:37;19.80;37.10
38020;DHT22;23829;51.350;17.286;2022-12-07T11:42:59;19.90;37.00
38020;DHT22;23829;51.350;17.286;2022-12-07T11:45:36;19.80;37.20
38020;DHT22;23829;51.350;17.286;2022-12-07T11:48:11;19.70;37.90
38020;DHT22;23829;51.350;17.286;2022-12-07T11:50:50;19.90;37.20
38020;DHT22;23829;51.350;17.286;2022-12-07T11:53:21;20.00;37.30
38020;DHT22;23829;51.350;17.286;2022-12-07T11:56:15;20.00;37.30
38020;DHT22;23829;51.350;17.286;2022-12-07T12:06:40;20.00;37.20
38020;DHT22;23829;51.350;17.286;2022-12-07T12:09:21;19.90;37.50
38020;DHT22;23829;51.350;17.286;2022-12-07T12:12:08;20.00;37.60
38020;DHT22;23829;51.350;17.286;2022-12-07T12:14:48;19.90;37.70
38020;DHT22;23829;51.350;17.286;2022-12-07T12:17:49;19.80;37.50
38020;DHT22;23829;51.350;17.286;2022-12-07T12:20:43;19.80;38.10
38020;DHT22;23829;51.350;17.286;2022-12-07T12:23:21;20.00;37.90
38020;DHT22;23829;51.350;17.286;2022-12-07T12:25:54;20.00;37.80
38020;DHT22;23829;51.350;17.286;2022-12-07T12:33:50;20.20;37.80
38020;DHT22;23829;51.350;17.286;2022-12-07T12:36:18;20.20;37.00
38020;DHT22;23829;51.350;17.286;2022-12-07T12:47:02;20.50;36.40
38020;DHT22;23829;51.350;17.286;2022-12-07T12:49:35;20.70;36.10
38020;DHT22;23829;51.350;17.286;2022-12-07T12:55:12;20.60;36.20
38020;DHT22;23829;51.350;17.286;2022-12-07T12:57:39;20.30;36.20
38020;DHT22;23829;51.350;17.286;2022-12-07T13:00:16;20.30;36.30
38020;DHT22;23829;51.350;17.286;2022-12-07T13:02:56;20.30;36.40
38020;DHT22;23829;51.350;17.286;2022-12-07T13:05:26;20.30;36.40
38020;DHT22;23829;51.350;17.286;2022-12-07T13:08:00;20.20;36.30
38020;DHT22;23829;51.350;17.286;2022-12-07T13:15:45;20.00;36.40
38020;DHT22;23829;51.350;17.286;2022-12-07T13:18:37;20.00;36.00
38020;DHT22;23829;51.350;17.286;2022-12-07T13:29:11;19.80;35.90
38020;DHT22;23829;51.350;17.286;2022-12-07T13:34:32;19.80;35.90
38020;DHT22;23829;51.350;17.286;2022-12-07T13:37:25;20.00;35.60
38020;DHT22;23829;51.350;17.286;2022-12-07T13:42:29;19.90;35.90
38020;DHT22;23829;51.350;17.286;2022-12-07T13:44:58;20.20;35.60
38020;DHT22;23829;51.350;17.286;2022-12-07T13:47:44;20.20;35.20
38020;DHT22;23829;51.350;17.286;2022-12-07T13:50:29;20.10;35.40
38020;DHT22;23829;51.350;17.286;2022-12-07T13:52:58;20.30;35.30
38020;DHT22;23829;51.350;17.286;2022-12-07T13:55:26;20.30;35.20
38020;DHT22;23829;51.350;17.286;2022-12-07T13:57:54;20.20;35.10
38020;DHT22;23829;51.350;17.286;2022-12-07T14:00:23;20.30;35.30
38020;DHT22;23829;51.350;17.286;2022-12-07T14:03:00;19.90;35.70
38020;DHT22;23829;51.350;17.286;2022-12-07T14:05:28;19.90;35.40
38020;DHT22;23829;51.350;17.286;2022-12-07T14:08:00;19.80;35.40
38020;DHT22;23829;51.350;17.286;2022-12-07T14:10:33;20.00;35.40
38020;DHT22;23829;51.350;17.286;2022-12-07T14:13:02;19.90;35.10
38020;DHT22;23829;51.350;17.286;2022-12-07T14:15:32;20.00;35.20
38020;DHT22;23829;51.350;17.286;2022-12-07T14:18:00;19.80;35.50
38020;DHT22;23829;51.350;17.286;2022-12-07T14:20:30;19.80;35.40
38020;DHT22;23829;51.350;17.286;2022-12-07T14:22:57;19.90;35.30
38020;DHT22;23829;51.350;17.286;2022-12-07T14:25:26;19.90;35.40
38020;DHT22;23829;51.350;17.286;2022-12-07T14:28:00;19.90;35.10
38020;DHT22;23829;51.350;17.286;2022-12-07T14:30:29;19.80;35.10
38020;DHT22;23829;51.350;17.286;2022-12-07T14:33:04;19.80;34.90
38020;DHT22;23829;51.350;17.286;2022-12-07T14:35:32;19.90;35.00
38020;DHT22;23829;51.350;17.286;2022-12-07T14:37:59;19.90;35.00
38020;DHT22;23829;51.350;17.286;2022-12-07T14:40:27;19.80;35.30
38020;DHT22;23829;51.350;17.286;2022-12-07T14:43:06;19.80;35.30
38020;DHT22;23829;51.350;17.286;2022-12-07T14:45:35;19.70;35.40
38020;DHT22;23829;51.350;17.286;2022-12-07T14:48:01;19.70;35.20
38020;DHT22;23829;51.350;17.286;2022-12-07T14:50:28;19.50;35.40
38020;DHT22;23829;51.350;17.286;2022-12-07T14:53:10;19.60;35.60
38020;DHT22;23829;51.350;17.286;2022-12-07T14:55:38;19.50;35.40
38020;DHT22;23829;51.350;17.286;2022-12-07T14:58:04;19.60;35.30
38020;DHT22;23829;51.350;17.286;2022-12-07T15:00:31;19.70;35.20
38020;DHT22;23829;51.350;17.286;2022-12-07T15:02:59;19.80;35.30
38020;DHT22;23829;51.350;17.286;2022-12-07T15:05:25;19.80;34.90
38020;DHT22;23829;51.350;17.286;2022-12-07T15:07:52;20.00;34.60
38020;DHT22;23829;51.350;17.286;2022-12-07T15:10:27;19.90;34.60
38020;DHT22;23829;51.350;17.286;2022-12-07T15:12:56;19.90;34.60
38020;DHT22;23829;51.350;17.286;2022-12-07T15:15:50;19.70;34.90
38020;DHT22;23829;51.350;17.286;2022-12-07T15:18:18;19.60;35.10
38020;DHT22;23829;51.350;17.286;2022-12-07T15:20:46;19.60;35.10
38020;DHT22;23829;51.350;17.286;2022-12-07T15:23:13;19.60;34.90
38020;DHT22;23829;51.350;17.286;2022-12-07T15:25:44;19.40;35.10
38020;DHT22;23829;51.350;17.286;2022-12-07T15:28:11;19.50;35.10
38020;DHT22;23829;51.350;17.286;2022-12-07T15:30:42;19.10;35.50
38020;DHT22;23829;51.350;17.286;2022-12-07T15:33:12;19.30;35.50
38020;DHT22;23829;51.350;17.286;2022-12-07T15:35:44;19.30;35.60
38020;DHT22;23829;51.350;17.286;2022-12-07T15:38:10;19.30;35.70
38020;DHT22;23829;51.350;17.286;2022-12-07T15:40:37;19.20;35.10
38020;DHT22;23829;51.350;17.286;2022-12-07T15:43:04;19.30;35.30
38020;DHT22;23829;51.350;17.286;2022-12-07T15:45:31;19.20;35.30
38020;DHT22;23829;51.350;17.286;2022-12-07T15:47:58;19.20;35.50
38020;DHT22;23829;51.350;17.286;2022-12-07T15:50:25;19.20;35.30
38020;DHT22;23829;51.350;17.286;2022-12-07T15:52:51;19.30;35.30
38020;DHT22;23829;51.350;17.286;2022-12-07T15:55:18;19.30;35.50
38020;DHT22;23829;51.350;17.286;2022-12-07T15:57:44;19.40;35.20
38020;DHT22;23829;51.350;17.286;2022-12-07T16:00:12;19.30;35.00
38020;DHT22;23829;51.350;17.286;2022-12-07T16:02:38;19.30;35.20
38020;DHT22;23829;51.350;17.286;2022-12-07T16:05:05;19.20;35.40
38020;DHT22;23829;51.350;17.286;2022-12-07T16:07:32;19.30;35.10
38020;DHT22;23829;51.350;17.286;2022-12-07T16:09:58;19.40;35.10
38020;DHT22;23829;51.350;17.286;2022-12-07T16:12:24;19.60;34.70
38020;DHT22;23829;51.350;17.286;2022-12-07T16:14:51;19.50;35.50
38020;DHT22;23829;51.350;17.286;2022-12-07T16:17:17;19.60;35.00
38020;DHT22;23829;51.350;17.286;2022-12-07T16:19:44;19.70;34.40
38020;DHT22;23829;51.350;17.286;2022-12-07T16:22:10;19.60;34.50
38020;DHT22;23829;51.350;17.286;2022-12-07T16:24:37;19.80;34.20
38020;DHT22;23829;51.350;17.286;2022-12-07T16:27:03;19.60;34.20
38020;DHT22;23829;51.350;17.286;2022-12-07T16:29:30;19.70;34.30
38020;DHT22;23829;51.350;17.286;2022-12-07T16:31:56;19.50;34.40
38020;DHT22;23829;51.350;17.286;2022-12-07T16:34:23;19.60;34.40
38020;DHT22;23829;51.350;17.286;2022-12-07T16:36:49;19.80;34.10
38020;DHT22;23829;51.350;17.286;2022-12-07T16:39:16;19.80;34.20
38020;DHT22;23829;51.350;17.286;2022-12-07T16:41:44;19.80;34.20
38020;DHT22;23829;51.350;17.286;2022-12-07T16:44:12;19.80;34.40
38020;DHT22;23829;51.350;17.286;2022-12-07T16:46:40;19.80;34.20
38020;DHT22;23829;51.350;17.286;2022-12-07T16:49:06;20.00;34.10
38020;DHT22;23829;51.350;17.286;2022-12-07T16:51:33;20.00;34.10
38020;DHT22;23829;51.350;17.286;2022-12-07T16:54:01;20.00;34.10
38020;DHT22;23829;51.350;17.286;2022-12-07T16:56:28;20.00;34.10
38020;DHT22;23829;51.350;17.286;2022-12-07T16:58:57;20.10;34.20
38020;DHT22;23829;51.350;17.286;2022-12-07T17:01:23;20.10;33.90
38020;DHT22;23829;51.350;17.286;2022-12-07T17:03:50;20.20;33.80
38020;DHT22;23829;51.350;17.286;2022-12-07T17:06:21;20.20;33.70
38020;DHT22;23829;51.350;17.286;2022-12-07T17:08:49;20.10;33.70
38020;DHT22;23829;51.350;17.286;2022-12-07T17:11:19;20.20;33.60
38020;DHT22;23829;51.350;17.286;2022-12-07T17:13:46;20.20;33.60
38020;DHT22;23829;51.350;17.286;2022-12-07T17:16:31;20.10;33.60
38020;DHT22;23829;51.350;17.286;2022-12-07T17:18:58;20.10;33.60
38020;DHT22;23829;51.350;17.286;2022-12-07T17:21:24;20.10;33.70
38020;DHT22;23829;51.350;17.286;2022-12-07T17:23:51;20.10;33.90
38020;DHT22;23829;51.350;17.286;2022-12-07T17:26:24;20.20;33.60
38020;DHT22;23829;51.350;17.286;2022-12-07T17:28:51;20.10;33.90
38020;DHT22;23829;51.350;17.286;2022-12-07T17:31:19;20.10;33.80
38020;DHT22;23829;51.350;17.286;2022-12-07T17:33:46;20.00;34.00
38020;DHT22;23829;51.350;17.286;2022-12-07T17:36:21;20.00;34.00
38020;DHT22;23829;51.350;17.286;2022-12-07T17:38:48;20.00;34.00
38020;DHT22;23829;51.350;17.286;2022-12-07T17:41:17;20.10;34.00
38020;DHT22;23829;51.350;17.286;2022-12-07T17:44:07;20.10;33.80
38020;DHT22;23829;51.350;17.286;2022-12-07T17:46:34;20.10;33.60